sensor_id;sensor_type;location;lat;lon;timestamp;P1;durP1;ratioP1;P2;durP2;ratioP2
51459;SDS011;37534;39.772;2.718;2023-10-13T00:02:11;9.18;;;8.25;;
51459;SDS011;37534;39.772;2.718;2023-10-13T00:04:36;9.88;;;8.85;;
51459;SDS011;37534;39.772;2.718;2023-10-13T00:07:02;8.88;;;7.80;;
51459;SDS011;37534;39.772;2.718;2023-10-13T00:09:29;8.35;;;7.65;;
51459;SDS011;37534;39.772;2.718;2023-10-13T00:12:01;8.88;;;7.97;;
51459;SDS011;37534;39.772;2.718;2023-10-13T00:14:28;8.13;;;6.95;;
51459;SDS011;37534;39.772;2.718;2023-10-13T00:17:04;8.35;;;7.65;;
51459;SDS011;37534;39.772;2.718;2023-10-13T00:19:40;8.77;;;7.80;;
51459;SDS011;37534;39.772;2.718;2023-10-13T00:22:11;8.45;;;7.03;;
51459;SDS011;37534;39.772;2.718;2023-10-13T00:24:44;10.65;;;7.72;;
51459;SDS011;37534;39.772;2.718;2023-10-13T00:32:38;7.82;;;7.07;;
51459;SDS011;37534;39.772;2.718;2023-10-13T00:35:05;8.00;;;7.28;;
51459;SDS011;37534;39.772;2.718;2023-10-13T00:37:31;10.63;;;7.50;;
51459;SDS011;37534;39.772;2.718;2023-10-13T00:40:06;9.88;;;7.78;;
51459;SDS011;37534;39.772;2.718;2023-10-13T00:42:42;8.20;;;7.40;;
51459;SDS011;37534;39.772;2.718;2023-10-13T00:45:17;8.15;;;7.45;;
51459;SDS011;37534;39.772;2.718;2023-10-13T00:47:43;11.85;;;8.65;;
51459;SDS011;37534;39.772;2.718;2023-10-13T00:50:21;8.93;;;7.70;;
51459;SDS011;37534;39.772;2.718;2023-10-13T00:52:49;9.35;;;7.60;;
51459;SDS011;37534;39.772;2.718;2023-10-13T00:55:18;8.90;;;7.57;;
51459;SDS011;37534;39.772;2.718;2023-10-13T00:57:56;9.82;;;6.38;;
51459;SDS011;37534;39.772;2.718;2023-10-13T01:00:27;7.75;;;7.13;;
51459;SDS011;37534;39.772;2.718;2023-10-13T01:02:54;8.52;;;7.70;;
51459;SDS011;37534;39.772;2.718;2023-10-13T01:05:21;8.50;;;7.68;;
51459;SDS011;37534;39.772;2.718;2023-10-13T01:07:48;8.32;;;7.53;;
51459;SDS011;37534;39.772;2.718;2023-10-13T01:10:18;9.05;;;8.20;;
51459;SDS011;37534;39.772;2.718;2023-10-13T01:12:44;9.90;;;7.90;;
51459;SDS011;37534;39.772;2.718;2023-10-13T01:15:10;8.80;;;7.95;;
51459;SDS011;37534;39.772;2.718;2023-10-13T01:17:40;7.07;;;6.43;;
51459;SDS011;37534;39.772;2.718;2023-10-13T01:20:06;7.35;;;6.75;;
51459;SDS011;37534;39.772;2.718;2023-10-13T01:22:36;8.30;;;7.45;;
51459;SDS011;37534;39.772;2.718;2023-10-13T01:25:03;10.48;;;6.70;;
51459;SDS011;37534;39.772;2.718;2023-10-13T01:27:37;9.07;;;6.95;;
51459;SDS011;37534;39.772;2.718;2023-10-13T01:30:04;7.88;;;6.82;;
51459;SDS011;37534;39.772;2.718;2023-10-13T01:32:35;8.77;;;7.65;;
51459;SDS011;37534;39.772;2.718;2023-10-13T01:35:10;15.48;;;7.47;;
51459;SDS011;37534;39.772;2.718;2023-10-13T01:37:36;8.00;;;7.28;;
51459;SDS011;37534;39.772;2.718;2023-10-13T01:40:02;7.18;;;6.57;;
51459;SDS011;37534;39.772;2.718;2023-10-13T01:42:29;9.70;;;7.22;;
51459;SDS011;37534;39.772;2.718;2023-10-13T01:44:55;7.75;;;6.95;;
51459;SDS011;37534;39.772;2.718;2023-10-13T01:47:30;7.18;;;6.50;;
51459;SDS011;37534;39.772;2.718;2023-10-13T01:49:58;7.20;;;6.40;;
51459;SDS011;37534;39.772;2.718;2023-10-13T01:52:32;23.95;;;7.57;;
51459;SDS011;37534;39.772;2.718;2023-10-13T01:54:57;9.95;;;6.60;;
51459;SDS011;37534;39.772;2.718;2023-10-13T01:57:26;7.50;;;6.80;;
51459;SDS011;37534;39.772;2.718;2023-10-13T01:59:53;7.53;;;6.80;;
51459;SDS011;37534;39.772;2.718;2023-10-13T02:02:20;10.55;;;6.57;;
51459;SDS011;37534;39.772;2.718;2023-10-13T02:04:54;7.75;;;7.00;;
51459;SDS011;37534;39.772;2.718;2023-10-13T02:07:27;7.70;;;7.00;;
51459;SDS011;37534;39.772;2.718;2023-10-13T02:09:56;7.55;;;6.85;;
51459;SDS011;37534;39.772;2.718;2023-10-13T02:12:21;8.60;;;7.72;;
51459;SDS011;37534;39.772;2.718;2023-10-13T02:15:02;7.13;;;6.53;;
51459;SDS011;37534;39.772;2.718;2023-10-13T02:17:30;7.53;;;6.05;;
51459;SDS011;37534;39.772;2.718;2023-10-13T02:20:08;8.32;;;7.47;;
51459;SDS011;37534;39.772;2.718;2023-10-13T02:22:39;7.93;;;7.13;;
51459;SDS011;37534;39.772;2.718;2023-10-13T02:25:14;11.07;;;6.63;;
51459;SDS011;37534;39.772;2.718;2023-10-13T02:27:42;9.60;;;7.32;;
51459;SDS011;37534;39.772;2.718;2023-10-13T02:30:08;11.52;;;7.15;;
51459;SDS011;37534;39.772;2.718;2023-10-13T02:32:39;8.57;;;7.68;;
51459;SDS011;37534;39.772;2.718;2023-10-13T02:35:09;7.80;;;6.95;;
51459;SDS011;37534;39.772;2.718;2023-10-13T02:37:41;11.32;;;7.22;;
51459;SDS011;37534;39.772;2.718;2023-10-13T02:40:19;8.07;;;6.63;;
51459;SDS011;37534;39.772;2.718;2023-10-13T02:42:48;10.50;;;7.18;;
51459;SDS011;37534;39.772;2.718;2023-10-13T02:45:14;8.73;;;7.25;;
51459;SDS011;37534;39.772;2.718;2023-10-13T02:47:40;7.47;;;6.53;;
51459;SDS011;37534;39.772;2.718;2023-10-13T02:50:08;6.95;;;6.35;;
51459;SDS011;37534;39.772;2.718;2023-10-13T03:22:42;10.70;;;7.10;;
51459;SDS011;37534;39.772;2.718;2023-10-13T03:25:14;14.75;;;7.57;;
51459;SDS011;37534;39.772;2.718;2023-10-13T03:27:54;7.40;;;6.68;;
51459;SDS011;37534;39.772;2.718;2023-10-13T03:30:22;9.43;;;7.30;;
51459;SDS011;37534;39.772;2.718;2023-10-13T03:32:55;7.88;;;7.15;;
51459;SDS011;37534;39.772;2.718;2023-10-13T03:35:21;7.07;;;6.35;;
51459;SDS011;37534;39.772;2.718;2023-10-13T03:37:53;7.47;;;6.72;;
51459;SDS011;37534;39.772;2.718;2023-10-13T03:40:20;8.10;;;7.38;;
51459;SDS011;37534;39.772;2.718;2023-10-13T03:45:43;6.88;;;6.18;;
51459;SDS011;37534;39.772;2.718;2023-10-13T03:48:16;7.82;;;6.80;;
51459;SDS011;37534;39.772;2.718;2023-10-13T03:51:01;6.53;;;5.80;;
51459;SDS011;37534;39.772;2.718;2023-10-13T03:53:36;6.90;;;6.35;;
51459;SDS011;37534;39.772;2.718;2023-10-13T03:56:15;8.32;;;6.22;;
51459;SDS011;37534;39.772;2.718;2023-10-13T03:58:49;8.27;;;7.47;;
51459;SDS011;37534;39.772;2.718;2023-10-13T04:01:14;7.53;;;6.75;;
51459;SDS011;37534;39.772;2.718;2023-10-13T04:03:42;9.00;;;7.75;;
51459;SDS011;37534;39.772;2.718;2023-10-13T04:06:28;8.35;;;6.93;;
51459;SDS011;37534;39.772;2.718;2023-10-13T06:09:30;14.63;;;9.00;;
51459;SDS011;37534;39.772;2.718;2023-10-13T06:12:15;8.75;;;7.88;;
51459;SDS011;37534;39.772;2.718;2023-10-13T06:14:59;9.10;;;8.30;;
51459;SDS011;37534;39.772;2.718;2023-10-13T06:17:43;9.50;;;8.60;;
51459;SDS011;37534;39.772;2.718;2023-10-13T06:20:27;8.65;;;7.35;;
51459;SDS011;37534;39.772;2.718;2023-10-13T06:23:11;9.05;;;8.05;;
51459;SDS011;37534;39.772;2.718;2023-10-13T06:25:55;8.27;;;7.57;;
51459;SDS011;37534;39.772;2.718;2023-10-13T06:28:39;25.38;;;14.70;;
51459;SDS011;37534;39.772;2.718;2023-10-13T06:31:08;21.30;;;14.07;;
51459;SDS011;37534;39.772;2.718;2023-10-13T06:33:47;23.55;;;16.83;;
51459;SDS011;37534;39.772;2.718;2023-10-13T06:36:13;33.03;;;22.33;;
51459;SDS011;37534;39.772;2.718;2023-10-13T06:38:39;112.20;;;70.32;;
51459;SDS011;37534;39.772;2.718;2023-10-13T06:41:05;126.47;;;89.13;;
51459;SDS011;37534;39.772;2.718;2023-10-13T06:43:35;114.18;;;79.22;;
51459;SDS011;37534;39.772;2.718;2023-10-13T06:46:11;281.85;;;194.95;;
51459;SDS011;37534;39.772;2.718;2023-10-13T06:48:48;272.25;;;191.43;;
51459;SDS011;37534;39.772;2.718;2023-10-13T06:51:18;209.85;;;150.70;;
51459;SDS011;37534;39.772;2.718;2023-10-13T06:53:46;150.68;;;100.38;;
51459;SDS011;37534;39.772;2.718;2023-10-13T06:56:13;109.80;;;74.22;;
51459;SDS011;37534;39.772;2.718;2023-10-13T06:58:47;125.53;;;83.90;;
51459;SDS011;37534;39.772;2.718;2023-10-13T07:01:13;101.22;;;73.05;;
51459;SDS011;37534;39.772;2.718;2023-10-13T07:03:41;90.20;;;64.05;;
51459;SDS011;37534;39.772;2.718;2023-10-13T07:06:07;96.28;;;57.03;;
51459;SDS011;37534;39.772;2.718;2023-10-13T07:08:37;89.78;;;62.47;;
51459;SDS011;37534;39.772;2.718;2023-10-13T07:11:03;138.52;;;95.90;;
51459;SDS011;37534;39.772;2.718;2023-10-13T07:13:30;129.82;;;97.47;;
51459;SDS011;37534;39.772;2.718;2023-10-13T07:16:04;158.63;;;114.00;;
51459;SDS011;37534;39.772;2.718;2023-10-13T07:18:37;134.38;;;97.65;;
51459;SDS011;37534;39.772;2.718;2023-10-13T07:21:10;122.32;;;81.80;;
51459;SDS011;37534;39.772;2.718;2023-10-13T07:23:36;218.23;;;135.93;;
51459;SDS011;37534;39.772;2.718;2023-10-13T07:26:04;236.55;;;162.57;;
51459;SDS011;37534;39.772;2.718;2023-10-13T07:28:31;247.50;;;178.02;;
51459;SDS011;37534;39.772;2.718;2023-10-13T07:31:01;308.55;;;218.80;;
51459;SDS011;37534;39.772;2.718;2023-10-13T07:33:28;166.43;;;113.35;;
51459;SDS011;37534;39.772;2.718;2023-10-13T07:36:03;119.90;;;78.70;;
51459;SDS011;37534;39.772;2.718;2023-10-13T07:38:40;88.75;;;63.25;;
51459;SDS011;37534;39.772;2.718;2023-10-13T07:41:13;100.68;;;66.13;;
51459;SDS011;37534;39.772;2.718;2023-10-13T07:43:41;96.30;;;65.45;;
51459;SDS011;37534;39.772;2.718;2023-10-13T07:46:08;87.90;;;62.80;;
51459;SDS011;37534;39.772;2.718;2023-10-13T07:48:40;143.13;;;96.32;;
51459;SDS011;37534;39.772;2.718;2023-10-13T07:51:10;126.63;;;88.90;;
51459;SDS011;37534;39.772;2.718;2023-10-13T07:53:45;153.38;;;109.15;;
51459;SDS011;37534;39.772;2.718;2023-10-13T07:56:14;144.30;;;104.15;;
51459;SDS011;37534;39.772;2.718;2023-10-13T07:58:43;143.43;;;98.20;;
51459;SDS011;37534;39.772;2.718;2023-10-13T08:01:25;139.38;;;102.68;;
51459;SDS011;37534;39.772;2.718;2023-10-13T08:03:52;129.85;;;93.22;;
51459;SDS011;37534;39.772;2.718;2023-10-13T08:06:43;129.30;;;92.15;;
51459;SDS011;37534;39.772;2.718;2023-10-13T08:09:10;136.55;;;97.57;;
51459;SDS011;37534;39.772;2.718;2023-10-13T08:11:55;128.63;;;90.53;;
51459;SDS011;37534;39.772;2.718;2023-10-13T08:14:21;118.57;;;76.20;;
51459;SDS011;37534;39.772;2.718;2023-10-13T08:16:54;84.50;;;64.05;;
51459;SDS011;37534;39.772;2.718;2023-10-13T08:19:20;78.60;;;60.42;;
51459;SDS011;37534;39.772;2.718;2023-10-13T08:21:52;74.68;;;60.17;;
51459;SDS011;37534;39.772;2.718;2023-10-13T08:24:22;91.38;;;67.80;;
51459;SDS011;37534;39.772;2.718;2023-10-13T10:49:52;5.55;;;3.92;;
51459;SDS011;37534;39.772;2.718;2023-10-13T10:52:18;6.93;;;3.50;;
51459;SDS011;37534;39.772;2.718;2023-10-13T10:54:44;4.13;;;2.65;;
51459;SDS011;37534;39.772;2.718;2023-10-13T10:57:16;5.95;;;3.70;;
51459;SDS011;37534;39.772;2.718;2023-10-13T10:59:43;7.00;;;3.75;;
51459;SDS011;37534;39.772;2.718;2023-10-13T11:02:10;6.28;;;3.65;;
51459;SDS011;37534;39.772;2.718;2023-10-13T11:04:40;3.88;;;3.40;;
51459;SDS011;37534;39.772;2.718;2023-10-13T11:07:24;7.05;;;3.80;;
51459;SDS011;37534;39.772;2.718;2023-10-13T11:09:51;10.52;;;3.85;;
51459;SDS011;37534;39.772;2.718;2023-10-13T11:12:32;7.85;;;3.30;;
51459;SDS011;37534;39.772;2.718;2023-10-13T11:18:28;6.60;;;4.30;;
51459;SDS011;37534;39.772;2.718;2023-10-13T11:20:59;6.78;;;3.85;;
51459;SDS011;37534;39.772;2.718;2023-10-13T11:23:27;6.18;;;3.92;;
51459;SDS011;37534;39.772;2.718;2023-10-13T11:25:57;5.60;;;4.15;;
51459;SDS011;37534;39.772;2.718;2023-10-13T11:28:24;4.97;;;3.35;;
51459;SDS011;37534;39.772;2.718;2023-10-13T11:30:53;3.95;;;2.75;;
51459;SDS011;37534;39.772;2.718;2023-10-13T11:33:44;5.45;;;3.15;;
51459;SDS011;37534;39.772;2.718;2023-10-13T11:36:14;5.88;;;3.15;;
51459;SDS011;37534;39.772;2.718;2023-10-13T11:38:44;5.72;;;3.65;;
51459;SDS011;37534;39.772;2.718;2023-10-13T11:41:12;4.25;;;3.30;;
51459;SDS011;37534;39.772;2.718;2023-10-13T11:43:43;6.88;;;4.32;;
51459;SDS011;37534;39.772;2.718;2023-10-13T11:46:19;6.95;;;3.90;;
51459;SDS011;37534;39.772;2.718;2023-10-13T11:49:01;12.25;;;3.53;;
51459;SDS011;37534;39.772;2.718;2023-10-13T11:51:42;8.65;;;4.38;;
51459;SDS011;37534;39.772;2.718;2023-10-13T11:54:15;5.22;;;3.55;;
51459;SDS011;37534;39.772;2.718;2023-10-13T11:56:42;10.65;;;3.55;;
51459;SDS011;37534;39.772;2.718;2023-10-13T11:59:08;9.40;;;3.20;;
51459;SDS011;37534;39.772;2.718;2023-10-13T12:01:43;5.75;;;3.92;;
51459;SDS011;37534;39.772;2.718;2023-10-13T12:04:27;6.15;;;3.95;;
51459;SDS011;37534;39.772;2.718;2023-10-13T12:07:11;8.82;;;4.60;;
51459;SDS011;37534;39.772;2.718;2023-10-13T12:09:43;8.18;;;5.05;;
51459;SDS011;37534;39.772;2.718;2023-10-13T12:12:25;8.10;;;4.13;;
51459;SDS011;37534;39.772;2.718;2023-10-13T12:14:52;5.60;;;3.88;;
51459;SDS011;37534;39.772;2.718;2023-10-13T12:19:53;5.15;;;3.85;;
51459;SDS011;37534;39.772;2.718;2023-10-13T12:22:20;7.55;;;4.07;;
51459;SDS011;37534;39.772;2.718;2023-10-13T12:25:00;6.43;;;3.63;;
51459;SDS011;37534;39.772;2.718;2023-10-13T12:27:30;10.82;;;4.38;;
51459;SDS011;37534;39.772;2.718;2023-10-13T12:30:11;6.78;;;4.15;;
51459;SDS011;37534;39.772;2.718;2023-10-13T12:32:39;11.88;;;4.00;;
51459;SDS011;37534;39.772;2.718;2023-10-13T12:35:10;7.68;;;3.88;;
51459;SDS011;37534;39.772;2.718;2023-10-13T12:37:35;6.93;;;4.28;;
51459;SDS011;37534;39.772;2.718;2023-10-13T12:40:04;4.28;;;3.53;;
51459;SDS011;37534;39.772;2.718;2023-10-13T12:42:50;9.32;;;3.65;;
51459;SDS011;37534;39.772;2.718;2023-10-13T12:45:38;6.32;;;3.50;;
51459;SDS011;37534;39.772;2.718;2023-10-13T12:51:50;8.40;;;3.35;;
51459;SDS011;37534;39.772;2.718;2023-10-13T12:54:16;8.52;;;3.67;;
51459;SDS011;37534;39.772;2.718;2023-10-13T12:56:49;4.93;;;3.50;;
51459;SDS011;37534;39.772;2.718;2023-10-13T12:59:22;4.22;;;3.20;;
51459;SDS011;37534;39.772;2.718;2023-10-13T13:01:53;5.30;;;2.88;;
51459;SDS011;37534;39.772;2.718;2023-10-13T13:04:19;5.00;;;3.33;;
51459;SDS011;37534;39.772;2.718;2023-10-13T13:06:47;4.47;;;3.05;;
51459;SDS011;37534;39.772;2.718;2023-10-13T13:09:14;7.35;;;3.67;;
51459;SDS011;37534;39.772;2.718;2023-10-13T13:11:40;4.00;;;3.10;;
51459;SDS011;37534;39.772;2.718;2023-10-13T13:14:06;5.00;;;4.00;;
51459;SDS011;37534;39.772;2.718;2023-10-13T13:16:37;6.50;;;3.15;;
51459;SDS011;37534;39.772;2.718;2023-10-13T13:19:04;7.70;;;3.13;;
51459;SDS011;37534;39.772;2.718;2023-10-13T13:21:39;6.60;;;3.35;;
51459;SDS011;37534;39.772;2.718;2023-10-13T13:24:05;4.18;;;3.10;;
51459;SDS011;37534;39.772;2.718;2023-10-13T13:26:39;6.40;;;3.42;;
51459;SDS011;37534;39.772;2.718;2023-10-13T13:29:05;6.05;;;3.88;;
51459;SDS011;37534;39.772;2.718;2023-10-13T13:31:34;4.38;;;3.28;;
51459;SDS011;37534;39.772;2.718;2023-10-13T13:34:06;7.13;;;4.00;;
51459;SDS011;37534;39.772;2.718;2023-10-13T13:36:34;7.97;;;3.70;;
51459;SDS011;37534;39.772;2.718;2023-10-13T13:39:00;4.07;;;3.75;;
51459;SDS011;37534;39.772;2.718;2023-10-13T13:41:26;6.10;;;4.05;;
51459;SDS011;37534;39.772;2.718;2023-10-13T13:43:52;13.50;;;4.35;;
51459;SDS011;37534;39.772;2.718;2023-10-13T13:46:22;13.95;;;4.20;;
51459;SDS011;37534;39.772;2.718;2023-10-13T13:48:53;7.85;;;4.63;;
51459;SDS011;37534;39.772;2.718;2023-10-13T13:51:29;6.85;;;4.15;;
51459;SDS011;37534;39.772;2.718;2023-10-13T13:53:57;8.07;;;4.03;;
51459;SDS011;37534;39.772;2.718;2023-10-13T13:56:24;14.45;;;4.75;;
51459;SDS011;37534;39.772;2.718;2023-10-13T13:58:52;4.68;;;3.78;;
51459;SDS011;37534;39.772;2.718;2023-10-13T14:04:39;5.25;;;4.43;;
51459;SDS011;37534;39.772;2.718;2023-10-13T14:07:05;5.30;;;4.80;;
51459;SDS011;37534;39.772;2.718;2023-10-13T14:09:31;9.52;;;4.82;;
51459;SDS011;37534;39.772;2.718;2023-10-13T14:15:27;6.70;;;3.95;;
51459;SDS011;37534;39.772;2.718;2023-10-13T14:17:53;5.68;;;3.95;;
51459;SDS011;37534;39.772;2.718;2023-10-13T14:20:19;7.13;;;4.32;;
51459;SDS011;37534;39.772;2.718;2023-10-13T14:22:45;5.53;;;3.85;;
51459;SDS011;37534;39.772;2.718;2023-10-13T14:25:14;5.00;;;3.88;;
51459;SDS011;37534;39.772;2.718;2023-10-13T14:27:41;11.70;;;4.55;;
51459;SDS011;37534;39.772;2.718;2023-10-13T14:30:07;8.10;;;4.05;;
51459;SDS011;37534;39.772;2.718;2023-10-13T14:38:20;6.38;;;4.10;;
51459;SDS011;37534;39.772;2.718;2023-10-13T14:40:46;7.57;;;4.50;;
51459;SDS011;37534;39.772;2.718;2023-10-13T14:43:13;10.43;;;4.10;;
51459;SDS011;37534;39.772;2.718;2023-10-13T14:45:39;5.85;;;3.30;;
51459;SDS011;37534;39.772;2.718;2023-10-13T14:50:39;9.88;;;4.22;;
51459;SDS011;37534;39.772;2.718;2023-10-13T14:53:08;5.15;;;4.15;;
51459;SDS011;37534;39.772;2.718;2023-10-13T14:55:33;5.43;;;3.80;;
51459;SDS011;37534;39.772;2.718;2023-10-13T15:01:25;7.47;;;4.75;;
51459;SDS011;37534;39.772;2.718;2023-10-13T15:03:52;7.03;;;3.20;;
51459;SDS011;37534;39.772;2.718;2023-10-13T15:06:23;6.90;;;4.28;;
51459;SDS011;37534;39.772;2.718;2023-10-13T15:08:50;6.70;;;3.78;;
51459;SDS011;37534;39.772;2.718;2023-10-13T15:11:19;10.45;;;3.35;;
51459;SDS011;37534;39.772;2.718;2023-10-13T15:13:46;6.47;;;3.88;;
51459;SDS011;37534;39.772;2.718;2023-10-13T15:16:18;5.18;;;3.60;;
51459;SDS011;37534;39.772;2.718;2023-10-13T15:18:50;4.80;;;3.25;;
51459;SDS011;37534;39.772;2.718;2023-10-13T15:21:20;8.38;;;4.15;;
51459;SDS011;37534;39.772;2.718;2023-10-13T15:24:02;7.22;;;3.75;;
51459;SDS011;37534;39.772;2.718;2023-10-13T15:26:30;6.00;;;3.30;;
51459;SDS011;37534;39.772;2.718;2023-10-13T15:28:57;5.70;;;3.83;;
51459;SDS011;37534;39.772;2.718;2023-10-13T15:31:34;6.85;;;4.30;;
51459;SDS011;37534;39.772;2.718;2023-10-13T15:34:12;6.70;;;4.13;;
51459;SDS011;37534;39.772;2.718;2023-10-13T21:57:16;12.93;;;9.45;;
51459;SDS011;37534;39.772;2.718;2023-10-13T21:59:43;13.77;;;7.60;;
51459;SDS011;37534;39.772;2.718;2023-10-13T22:02:09;11.40;;;6.45;;
51459;SDS011;37534;39.772;2.718;2023-10-13T22:04:35;9.10;;;6.80;;
51459;SDS011;37534;39.772;2.718;2023-10-13T22:07:01;11.52;;;6.47;;
51459;SDS011;37534;39.772;2.718;2023-10-13T22:24:59;7.60;;;6.85;;
51459;SDS011;37534;39.772;2.718;2023-10-13T22:27:25;10.07;;;7.47;;
51459;SDS011;37534;39.772;2.718;2023-10-13T22:29:52;8.60;;;6.50;;
51459;SDS011;37534;39.772;2.718;2023-10-13T22:32:18;15.77;;;7.70;;
51459;SDS011;37534;39.772;2.718;2023-10-13T22:34:43;9.38;;;6.45;;
51459;SDS011;37534;39.772;2.718;2023-10-13T22:37:09;7.85;;;5.90;;
51459;SDS011;37534;39.772;2.718;2023-10-13T22:39:37;8.05;;;5.88;;
51459;SDS011;37534;39.772;2.718;2023-10-13T22:42:03;6.93;;;5.25;;
51459;SDS011;37534;39.772;2.718;2023-10-13T22:44:29;6.65;;;5.35;;
51459;SDS011;37534;39.772;2.718;2023-10-13T22:46:55;16.98;;;7.90;;
51459;SDS011;37534;39.772;2.718;2023-10-13T22:49:20;7.40;;;6.18;;
51459;SDS011;37534;39.772;2.718;2023-10-13T22:51:48;13.43;;;6.53;;
51459;SDS011;37534;39.772;2.718;2023-10-13T22:54:14;9.25;;;6.18;;
51459;SDS011;37534;39.772;2.718;2023-10-13T22:56:41;7.60;;;6.00;;
51459;SDS011;37534;39.772;2.718;2023-10-13T22:59:09;9.38;;;7.13;;
51459;SDS011;37534;39.772;2.718;2023-10-13T23:01:39;11.35;;;6.80;;
51459;SDS011;37534;39.772;2.718;2023-10-13T23:04:10;6.30;;;5.20;;
51459;SDS011;37534;39.772;2.718;2023-10-13T23:06:41;6.22;;;5.63;;
51459;SDS011;37534;39.772;2.718;2023-10-13T23:09:14;7.45;;;4.53;;
51459;SDS011;37534;39.772;2.718;2023-10-13T23:11:49;6.70;;;4.68;;
51459;SDS011;37534;39.772;2.718;2023-10-13T23:16:47;8.77;;;5.45;;
51459;SDS011;37534;39.772;2.718;2023-10-13T23:19:15;5.90;;;5.30;;
51459;SDS011;37534;39.772;2.718;2023-10-13T23:21:44;9.57;;;7.32;;
51459;SDS011;37534;39.772;2.718;2023-10-13T23:24:13;6.57;;;5.32;;
51459;SDS011;37534;39.772;2.718;2023-10-13T23:26:39;13.10;;;5.85;;
51459;SDS011;37534;39.772;2.718;2023-10-13T23:29:06;16.95;;;6.65;;
51459;SDS011;37534;39.772;2.718;2023-10-13T23:31:35;9.77;;;6.80;;
51459;SDS011;37534;39.772;2.718;2023-10-13T23:34:01;7.53;;;6.28;;
51459;SDS011;37534;39.772;2.718;2023-10-13T23:36:27;8.13;;;5.78;;
51459;SDS011;37534;39.772;2.718;2023-10-13T23:38:56;10.77;;;7.20;;
51459;SDS011;37534;39.772;2.718;2023-10-13T23:41:25;7.20;;;6.30;;
51459;SDS011;37534;39.772;2.718;2023-10-13T23:43:56;8.00;;;6.72;;
51459;SDS011;37534;39.772;2.718;2023-10-13T23:46:24;13.57;;;6.28;;
51459;SDS011;37534;39.772;2.718;2023-10-13T23:48:51;11.40;;;6.70;;
51459;SDS011;37534;39.772;2.718;2023-10-13T23:51:21;7.55;;;5.25;;
51459;SDS011;37534;39.772;2.718;2023-10-13T23:53:51;11.60;;;6.43;;
51459;SDS011;37534;39.772;2.718;2023-10-13T23:56:18;7.25;;;5.57;;
